sensor_id;sensor_type;location;lat;lon;timestamp;P1;durP1;ratioP1;P2;durP2;ratioP2
70927;SDS011;58587;53.034;18.576;2023-04-28T00:00:51;110.35;;;37.13;;
70927;SDS011;58587;53.034;18.576;2023-04-28T00:03:17;104.77;;;37.07;;
70927;SDS011;58587;53.034;18.576;2023-04-28T00:05:42;114.40;;;37.63;;
70927;SDS011;58587;53.034;18.576;2023-04-28T00:08:08;111.05;;;37.33;;
70927;SDS011;58587;53.034;18.576;2023-04-28T00:10:33;101.53;;;34.97;;
70927;SDS011;58587;53.034;18.576;2023-04-28T00:12:59;87.17;;;28.23;;
70927;SDS011;58587;53.034;18.576;2023-04-28T00:15:25;77.15;;;25.85;;
70927;SDS011;58587;53.034;18.576;2023-04-28T00:17:50;65.63;;;23.00;;
70927;SDS011;58587;53.034;18.576;2023-04-28T00:20:15;66.77;;;21.27;;
70927;SDS011;58587;53.034;18.576;2023-04-28T00:22:41;73.70;;;21.83;;
70927;SDS011;58587;53.034;18.576;2023-04-28T00:25:06;57.57;;;21.30;;
70927;SDS011;58587;53.034;18.576;2023-04-28T00:27:32;53.40;;;18.70;;
70927;SDS011;58587;53.034;18.576;2023-04-28T00:29:58;40.17;;;15.50;;
70927;SDS011;58587;53.034;18.576;2023-04-28T00:32:23;34.30;;;13.53;;
70927;SDS011;58587;53.034;18.576;2023-04-28T00:34:49;33.73;;;13.37;;
70927;SDS011;58587;53.034;18.576;2023-04-28T00:37:15;35.85;;;13.25;;
70927;SDS011;58587;53.034;18.576;2023-04-28T00:39:41;35.90;;;13.53;;
70927;SDS011;58587;53.034;18.576;2023-04-28T00:42:06;33.13;;;13.67;;
70927;SDS011;58587;53.034;18.576;2023-04-28T00:44:31;29.15;;;12.35;;
70927;SDS011;58587;53.034;18.576;2023-04-28T00:46:57;32.38;;;12.18;;
70927;SDS011;58587;53.034;18.576;2023-04-28T00:49:23;30.73;;;12.03;;
70927;SDS011;58587;53.034;18.576;2023-04-28T00:51:49;34.30;;;12.50;;
70927;SDS011;58587;53.034;18.576;2023-04-28T00:54:15;30.53;;;12.03;;
70927;SDS011;58587;53.034;18.576;2023-04-28T00:56:41;29.98;;;12.10;;
70927;SDS011;58587;53.034;18.576;2023-04-28T00:59:07;27.58;;;11.10;;
70927;SDS011;58587;53.034;18.576;2023-04-28T01:01:33;29.33;;;11.53;;
70927;SDS011;58587;53.034;18.576;2023-04-28T01:03:59;29.60;;;12.05;;
70927;SDS011;58587;53.034;18.576;2023-04-28T01:06:24;31.30;;;12.03;;
70927;SDS011;58587;53.034;18.576;2023-04-28T01:08:51;31.90;;;12.55;;
70927;SDS011;58587;53.034;18.576;2023-04-28T01:11:17;30.65;;;11.93;;
70927;SDS011;58587;53.034;18.576;2023-04-28T01:13:42;34.13;;;13.53;;
70927;SDS011;58587;53.034;18.576;2023-04-28T01:16:07;35.00;;;14.63;;
70927;SDS011;58587;53.034;18.576;2023-04-28T01:18:33;37.17;;;15.37;;
70927;SDS011;58587;53.034;18.576;2023-04-28T01:20:59;36.15;;;15.32;;
70927;SDS011;58587;53.034;18.576;2023-04-28T01:23:24;32.57;;;12.67;;
70927;SDS011;58587;53.034;18.576;2023-04-28T01:25:50;36.42;;;14.85;;
70927;SDS011;58587;53.034;18.576;2023-04-28T01:28:15;32.88;;;15.48;;
70927;SDS011;58587;53.034;18.576;2023-04-28T01:30:41;29.83;;;13.90;;
70927;SDS011;58587;53.034;18.576;2023-04-28T01:33:06;31.03;;;14.43;;
70927;SDS011;58587;53.034;18.576;2023-04-28T01:35:31;30.93;;;13.47;;
70927;SDS011;58587;53.034;18.576;2023-04-28T01:37:57;29.50;;;13.80;;
70927;SDS011;58587;53.034;18.576;2023-04-28T01:40:23;28.90;;;13.00;;
70927;SDS011;58587;53.034;18.576;2023-04-28T01:42:48;28.00;;;12.88;;
70927;SDS011;58587;53.034;18.576;2023-04-28T01:45:14;30.73;;;13.03;;
70927;SDS011;58587;53.034;18.576;2023-04-28T01:47:39;30.85;;;12.45;;
70927;SDS011;58587;53.034;18.576;2023-04-28T01:50:04;32.07;;;13.53;;
70927;SDS011;58587;53.034;18.576;2023-04-28T01:52:30;39.67;;;15.10;;
70927;SDS011;58587;53.034;18.576;2023-04-28T01:54:56;43.75;;;16.75;;
70927;SDS011;58587;53.034;18.576;2023-04-28T01:57:21;42.47;;;16.93;;
70927;SDS011;58587;53.034;18.576;2023-04-28T01:59:46;42.13;;;18.13;;
70927;SDS011;58587;53.034;18.576;2023-04-28T02:02:12;42.77;;;17.77;;
70927;SDS011;58587;53.034;18.576;2023-04-28T02:04:37;39.67;;;16.10;;
70927;SDS011;58587;53.034;18.576;2023-04-28T02:07:03;40.85;;;16.45;;
70927;SDS011;58587;53.034;18.576;2023-04-28T02:09:28;45.63;;;17.53;;
70927;SDS011;58587;53.034;18.576;2023-04-28T02:11:54;43.57;;;16.07;;
70927;SDS011;58587;53.034;18.576;2023-04-28T02:14:19;39.33;;;15.50;;
70927;SDS011;58587;53.034;18.576;2023-04-28T02:16:45;42.27;;;17.57;;
70927;SDS011;58587;53.034;18.576;2023-04-28T02:19:10;46.83;;;18.27;;
70927;SDS011;58587;53.034;18.576;2023-04-28T02:21:36;47.03;;;18.87;;
70927;SDS011;58587;53.034;18.576;2023-04-28T02:24:01;52.07;;;19.63;;
70927;SDS011;58587;53.034;18.576;2023-04-28T02:26:27;51.30;;;19.30;;
70927;SDS011;58587;53.034;18.576;2023-04-28T02:28:52;49.70;;;19.30;;
70927;SDS011;58587;53.034;18.576;2023-04-28T02:31:17;52.33;;;19.97;;
70927;SDS011;58587;53.034;18.576;2023-04-28T02:33:43;56.07;;;24.00;;
70927;SDS011;58587;53.034;18.576;2023-04-28T02:36:08;55.83;;;23.13;;
70927;SDS011;58587;53.034;18.576;2023-04-28T02:38:34;55.72;;;20.55;;
70927;SDS011;58587;53.034;18.576;2023-04-28T02:41:03;47.77;;;19.60;;
70927;SDS011;58587;53.034;18.576;2023-04-28T02:43:30;51.35;;;19.15;;
70927;SDS011;58587;53.034;18.576;2023-04-28T02:45:56;47.85;;;19.45;;
70927;SDS011;58587;53.034;18.576;2023-04-28T02:48:23;42.40;;;17.90;;
70927;SDS011;58587;53.034;18.576;2023-04-28T02:50:48;45.80;;;17.25;;
70927;SDS011;58587;53.034;18.576;2023-04-28T02:53:15;42.70;;;16.43;;
70927;SDS011;58587;53.034;18.576;2023-04-28T02:55:40;33.95;;;13.93;;
70927;SDS011;58587;53.034;18.576;2023-04-28T02:58:06;32.65;;;14.35;;
70927;SDS011;58587;53.034;18.576;2023-04-28T03:00:31;33.80;;;14.20;;
70927;SDS011;58587;53.034;18.576;2023-04-28T03:02:57;35.17;;;14.80;;
70927;SDS011;58587;53.034;18.576;2023-04-28T03:05:23;35.03;;;15.43;;
70927;SDS011;58587;53.034;18.576;2023-04-28T03:07:48;33.50;;;14.87;;
70927;SDS011;58587;53.034;18.576;2023-04-28T03:10:13;37.97;;;15.53;;
70927;SDS011;58587;53.034;18.576;2023-04-28T03:12:39;45.33;;;16.73;;
70927;SDS011;58587;53.034;18.576;2023-04-28T03:15:04;45.13;;;17.20;;
70927;SDS011;58587;53.034;18.576;2023-04-28T03:17:32;49.00;;;17.65;;
70927;SDS011;58587;53.034;18.576;2023-04-28T03:19:58;38.90;;;16.40;;
70927;SDS011;58587;53.034;18.576;2023-04-28T03:22:23;39.13;;;16.53;;
70927;SDS011;58587;53.034;18.576;2023-04-28T03:24:48;44.05;;;18.35;;
70927;SDS011;58587;53.034;18.576;2023-04-28T03:27:13;44.63;;;17.17;;
70927;SDS011;58587;53.034;18.576;2023-04-28T03:29:39;38.50;;;15.70;;
70927;SDS011;58587;53.034;18.576;2023-04-28T03:32:04;33.87;;;14.83;;
70927;SDS011;58587;53.034;18.576;2023-04-28T03:34:30;38.10;;;15.40;;
70927;SDS011;58587;53.034;18.576;2023-04-28T03:36:55;37.83;;;15.20;;
70927;SDS011;58587;53.034;18.576;2023-04-28T03:39:21;34.53;;;15.50;;
70927;SDS011;58587;53.034;18.576;2023-04-28T03:41:46;28.37;;;13.63;;
70927;SDS011;58587;53.034;18.576;2023-04-28T03:44:11;32.40;;;14.33;;
70927;SDS011;58587;53.034;18.576;2023-04-28T03:46:37;32.60;;;14.10;;
70927;SDS011;58587;53.034;18.576;2023-04-28T03:49:02;29.80;;;13.43;;
70927;SDS011;58587;53.034;18.576;2023-04-28T03:51:28;32.57;;;14.50;;
70927;SDS011;58587;53.034;18.576;2023-04-28T03:53:54;38.13;;;14.82;;
70927;SDS011;58587;53.034;18.576;2023-04-28T03:56:19;39.07;;;15.47;;
70927;SDS011;58587;53.034;18.576;2023-04-28T03:58:45;36.65;;;15.13;;
70927;SDS011;58587;53.034;18.576;2023-04-28T04:01:10;36.20;;;14.83;;
70927;SDS011;58587;53.034;18.576;2023-04-28T04:03:36;36.05;;;15.32;;
70927;SDS011;58587;53.034;18.576;2023-04-28T04:06:02;34.85;;;15.60;;
70927;SDS011;58587;53.034;18.576;2023-04-28T04:08:28;38.92;;;16.75;;
70927;SDS011;58587;53.034;18.576;2023-04-28T04:10:54;50.13;;;19.33;;
70927;SDS011;58587;53.034;18.576;2023-04-28T04:13:20;53.08;;;22.52;;
70927;SDS011;58587;53.034;18.576;2023-04-28T04:15:46;57.50;;;23.13;;
70927;SDS011;58587;53.034;18.576;2023-04-28T04:18:11;55.53;;;22.67;;
70927;SDS011;58587;53.034;18.576;2023-04-28T04:20:37;58.67;;;22.87;;
70927;SDS011;58587;53.034;18.576;2023-04-28T04:23:02;50.93;;;20.57;;
70927;SDS011;58587;53.034;18.576;2023-04-28T04:25:28;47.03;;;20.07;;
70927;SDS011;58587;53.034;18.576;2023-04-28T14:03:53;5.65;;;4.82;;
70927;SDS011;58587;53.034;18.576;2023-04-28T14:06:19;10.10;;;4.73;;
70927;SDS011;58587;53.034;18.576;2023-04-28T14:08:44;11.02;;;4.78;;
70927;SDS011;58587;53.034;18.576;2023-04-28T14:11:10;5.53;;;4.37;;
70927;SDS011;58587;53.034;18.576;2023-04-28T14:13:36;5.75;;;4.50;;
70927;SDS011;58587;53.034;18.576;2023-04-28T14:16:01;8.90;;;5.80;;
70927;SDS011;58587;53.034;18.576;2023-04-28T14:18:27;8.03;;;5.07;;
70927;SDS011;58587;53.034;18.576;2023-04-28T14:20:52;6.25;;;4.80;;
70927;SDS011;58587;53.034;18.576;2023-04-28T14:23:18;6.80;;;4.77;;
70927;SDS011;58587;53.034;18.576;2023-04-28T14:25:44;7.75;;;6.93;;
70927;SDS011;58587;53.034;18.576;2023-04-28T14:28:10;6.53;;;4.80;;
70927;SDS011;58587;53.034;18.576;2023-04-28T14:30:36;5.83;;;4.13;;
70927;SDS011;58587;53.034;18.576;2023-04-28T14:33:01;6.45;;;4.10;;
70927;SDS011;58587;53.034;18.576;2023-04-28T14:35:27;6.07;;;4.10;;
70927;SDS011;58587;53.034;18.576;2023-04-28T14:37:54;8.05;;;5.00;;
70927;SDS011;58587;53.034;18.576;2023-04-28T14:40:19;7.60;;;4.53;;
70927;SDS011;58587;53.034;18.576;2023-04-28T14:42:44;9.10;;;7.43;;
70927;SDS011;58587;53.034;18.576;2023-04-28T14:45:11;8.15;;;5.43;;
70927;SDS011;58587;53.034;18.576;2023-04-28T14:47:36;6.10;;;4.30;;
70927;SDS011;58587;53.034;18.576;2023-04-28T14:50:03;6.55;;;4.63;;
70927;SDS011;58587;53.034;18.576;2023-04-28T14:52:29;7.47;;;5.55;;
70927;SDS011;58587;53.034;18.576;2023-04-28T14:54:56;12.50;;;8.18;;
70927;SDS011;58587;53.034;18.576;2023-04-28T14:57:23;7.90;;;4.90;;
70927;SDS011;58587;53.034;18.576;2023-04-28T14:59:49;8.38;;;4.70;;
70927;SDS011;58587;53.034;18.576;2023-04-28T15:02:19;9.35;;;4.72;;
70927;SDS011;58587;53.034;18.576;2023-04-28T15:04:46;7.47;;;4.40;;
70927;SDS011;58587;53.034;18.576;2023-04-28T15:07:12;6.57;;;4.47;;
70927;SDS011;58587;53.034;18.576;2023-04-28T15:09:37;7.60;;;3.97;;
70927;SDS011;58587;53.034;18.576;2023-04-28T15:12:03;6.03;;;4.50;;
70927;SDS011;58587;53.034;18.576;2023-04-28T15:14:28;6.97;;;5.27;;
70927;SDS011;58587;53.034;18.576;2023-04-28T15:16:54;7.43;;;4.57;;
70927;SDS011;58587;53.034;18.576;2023-04-28T15:19:19;8.10;;;4.57;;
70927;SDS011;58587;53.034;18.576;2023-04-28T15:21:45;7.75;;;5.43;;
70927;SDS011;58587;53.034;18.576;2023-04-28T15:24:10;10.57;;;6.10;;
70927;SDS011;58587;53.034;18.576;2023-04-28T15:26:36;13.32;;;6.80;;
70927;SDS011;58587;53.034;18.576;2023-04-28T15:29:01;7.03;;;4.53;;
70927;SDS011;58587;53.034;18.576;2023-04-28T15:31:27;7.30;;;4.67;;
70927;SDS011;58587;53.034;18.576;2023-04-28T15:33:52;12.17;;;7.13;;
70927;SDS011;58587;53.034;18.576;2023-04-28T15:36:18;7.05;;;5.20;;
70927;SDS011;58587;53.034;18.576;2023-04-28T15:38:44;7.70;;;4.53;;
70927;SDS011;58587;53.034;18.576;2023-04-28T15:41:11;9.67;;;4.67;;
70927;SDS011;58587;53.034;18.576;2023-04-28T15:43:37;5.38;;;4.30;;
70927;SDS011;58587;53.034;18.576;2023-04-28T15:46:03;6.90;;;4.27;;
70927;SDS011;58587;53.034;18.576;2023-04-28T15:48:33;6.65;;;4.60;;
70927;SDS011;58587;53.034;18.576;2023-04-28T15:50:58;6.57;;;4.37;;
70927;SDS011;58587;53.034;18.576;2023-04-28T15:53:24;9.23;;;4.47;;
70927;SDS011;58587;53.034;18.576;2023-04-28T15:55:49;10.90;;;5.97;;
70927;SDS011;58587;53.034;18.576;2023-04-28T15:58:15;8.77;;;4.07;;
70927;SDS011;58587;53.034;18.576;2023-04-28T16:00:40;7.82;;;4.18;;
70927;SDS011;58587;53.034;18.576;2023-04-28T16:03:06;6.00;;;5.07;;
70927;SDS011;58587;53.034;18.576;2023-04-28T16:05:31;6.60;;;4.30;;
70927;SDS011;58587;53.034;18.576;2023-04-28T16:07:56;8.73;;;4.27;;
70927;SDS011;58587;53.034;18.576;2023-04-28T16:10:22;7.37;;;4.77;;
70927;SDS011;58587;53.034;18.576;2023-04-28T16:12:47;7.63;;;5.00;;
70927;SDS011;58587;53.034;18.576;2023-04-28T16:15:13;9.45;;;4.68;;
70927;SDS011;58587;53.034;18.576;2023-04-28T16:17:38;8.83;;;4.87;;
70927;SDS011;58587;53.034;18.576;2023-04-28T16:20:05;8.32;;;5.50;;
70927;SDS011;58587;53.034;18.576;2023-04-28T16:22:31;12.70;;;6.97;;
70927;SDS011;58587;53.034;18.576;2023-04-28T16:24:56;22.45;;;13.10;;
70927;SDS011;58587;53.034;18.576;2023-04-28T16:27:24;10.25;;;6.03;;
70927;SDS011;58587;53.034;18.576;2023-04-28T16:29:49;10.00;;;6.33;;
70927;SDS011;58587;53.034;18.576;2023-04-28T16:32:15;6.45;;;4.28;;
70927;SDS011;58587;53.034;18.576;2023-04-28T16:34:40;7.10;;;4.70;;
70927;SDS011;58587;53.034;18.576;2023-04-28T16:37:06;14.37;;;8.90;;
70927;SDS011;58587;53.034;18.576;2023-04-28T16:39:32;16.40;;;9.13;;
70927;SDS011;58587;53.034;18.576;2023-04-28T16:41:57;9.93;;;6.38;;
70927;SDS011;58587;53.034;18.576;2023-04-28T16:44:27;9.60;;;5.35;;
70927;SDS011;58587;53.034;18.576;2023-04-28T16:46:52;17.07;;;12.37;;
70927;SDS011;58587;53.034;18.576;2023-04-28T16:49:18;9.63;;;6.40;;
70927;SDS011;58587;53.034;18.576;2023-04-28T16:51:54;12.37;;;8.50;;
70927;SDS011;58587;53.034;18.576;2023-04-28T16:54:25;13.07;;;7.13;;
70927;SDS011;58587;53.034;18.576;2023-04-28T16:56:58;20.17;;;9.75;;
70927;SDS011;58587;53.034;18.576;2023-04-28T16:59:26;28.52;;;13.45;;
70927;SDS011;58587;53.034;18.576;2023-04-28T17:01:55;29.05;;;16.75;;
70927;SDS011;58587;53.034;18.576;2023-04-28T17:04:20;28.37;;;12.57;;
70927;SDS011;58587;53.034;18.576;2023-04-28T17:06:47;20.00;;;10.05;;
70927;SDS011;58587;53.034;18.576;2023-04-28T17:09:13;12.80;;;8.00;;
70927;SDS011;58587;53.034;18.576;2023-04-28T17:11:38;17.57;;;9.23;;
70927;SDS011;58587;53.034;18.576;2023-04-28T17:14:03;8.83;;;6.30;;
70927;SDS011;58587;53.034;18.576;2023-04-28T17:16:30;19.53;;;10.63;;
70927;SDS011;58587;53.034;18.576;2023-04-28T17:18:56;11.82;;;7.80;;
70927;SDS011;58587;53.034;18.576;2023-04-28T17:21:21;13.07;;;6.57;;
70927;SDS011;58587;53.034;18.576;2023-04-28T17:23:47;19.87;;;13.33;;
70927;SDS011;58587;53.034;18.576;2023-04-28T17:26:12;31.15;;;19.80;;
70927;SDS011;58587;53.034;18.576;2023-04-28T17:28:40;35.30;;;27.80;;
70927;SDS011;58587;53.034;18.576;2023-04-28T17:33:55;10.13;;;7.22;;
70927;SDS011;58587;53.034;18.576;2023-04-28T17:36:21;16.73;;;9.40;;
70927;SDS011;58587;53.034;18.576;2023-04-28T17:38:47;12.43;;;6.80;;
70927;SDS011;58587;53.034;18.576;2023-04-28T17:41:14;11.63;;;6.57;;
70927;SDS011;58587;53.034;18.576;2023-04-28T17:43:40;11.88;;;6.05;;
70927;SDS011;58587;53.034;18.576;2023-04-28T17:46:06;11.33;;;6.10;;
70927;SDS011;58587;53.034;18.576;2023-04-28T17:48:31;13.33;;;7.60;;
70927;SDS011;58587;53.034;18.576;2023-04-28T17:50:56;14.97;;;8.90;;
70927;SDS011;58587;53.034;18.576;2023-04-28T17:53:22;10.45;;;6.50;;
70927;SDS011;58587;53.034;18.576;2023-04-28T17:55:47;21.33;;;9.63;;
70927;SDS011;58587;53.034;18.576;2023-04-28T17:58:13;13.43;;;6.37;;
70927;SDS011;58587;53.034;18.576;2023-04-28T18:00:39;11.35;;;6.20;;
70927;SDS011;58587;53.034;18.576;2023-04-28T18:03:05;13.10;;;6.97;;
70927;SDS011;58587;53.034;18.576;2023-04-28T18:05:30;12.93;;;6.50;;
70927;SDS011;58587;53.034;18.576;2023-04-28T18:07:58;17.33;;;8.97;;
70927;SDS011;58587;53.034;18.576;2023-04-28T18:10:25;18.65;;;9.98;;
70927;SDS011;58587;53.034;18.576;2023-04-28T18:12:52;23.60;;;10.13;;
70927;SDS011;58587;53.034;18.576;2023-04-28T18:15:17;15.40;;;7.40;;
70927;SDS011;58587;53.034;18.576;2023-04-28T18:17:42;14.20;;;7.10;;
70927;SDS011;58587;53.034;18.576;2023-04-28T18:20:08;14.60;;;7.37;;
70927;SDS011;58587;53.034;18.576;2023-04-28T18:22:33;12.55;;;6.60;;
70927;SDS011;58587;53.034;18.576;2023-04-28T18:24:59;11.63;;;5.47;;
70927;SDS011;58587;53.034;18.576;2023-04-28T18:27:25;10.32;;;5.13;;
70927;SDS011;58587;53.034;18.576;2023-04-28T18:29:50;12.83;;;5.97;;
70927;SDS011;58587;53.034;18.576;2023-04-28T18:32:16;24.07;;;8.20;;
70927;SDS011;58587;53.034;18.576;2023-04-28T18:34:42;15.70;;;7.72;;
70927;SDS011;58587;53.034;18.576;2023-04-28T18:37:07;19.10;;;8.90;;
70927;SDS011;58587;53.034;18.576;2023-04-28T18:39:33;15.07;;;8.63;;
70927;SDS011;58587;53.034;18.576;2023-04-28T18:41:58;15.20;;;8.33;;
70927;SDS011;58587;53.034;18.576;2023-04-28T18:44:24;14.87;;;8.60;;
70927;SDS011;58587;53.034;18.576;2023-04-28T18:46:49;16.90;;;9.10;;
70927;SDS011;58587;53.034;18.576;2023-04-28T18:49:15;22.08;;;11.52;;
70927;SDS011;58587;53.034;18.576;2023-04-28T18:51:41;20.27;;;11.63;;
70927;SDS011;58587;53.034;18.576;2023-04-28T18:54:06;21.50;;;11.50;;
70927;SDS011;58587;53.034;18.576;2023-04-28T18:56:31;23.57;;;11.77;;
70927;SDS011;58587;53.034;18.576;2023-04-28T18:58:57;21.97;;;12.10;;
70927;SDS011;58587;53.034;18.576;2023-04-28T19:01:22;21.70;;;10.37;;
70927;SDS011;58587;53.034;18.576;2023-04-28T19:03:49;22.27;;;10.82;;
70927;SDS011;58587;53.034;18.576;2023-04-28T19:06:14;24.23;;;12.73;;
70927;SDS011;58587;53.034;18.576;2023-04-28T19:08:41;24.90;;;15.48;;
70927;SDS011;58587;53.034;18.576;2023-04-28T19:11:07;56.17;;;31.83;;
70927;SDS011;58587;53.034;18.576;2023-04-28T19:13:34;93.15;;;44.22;;
70927;SDS011;58587;53.034;18.576;2023-04-28T19:16:02;161.05;;;71.82;;
70927;SDS011;58587;53.034;18.576;2023-04-28T19:18:29;141.45;;;55.33;;
70927;SDS011;58587;53.034;18.576;2023-04-28T19:20:58;80.70;;;30.77;;
70927;SDS011;58587;53.034;18.576;2023-04-28T19:23:24;36.03;;;15.48;;
70927;SDS011;58587;53.034;18.576;2023-04-28T19:25:50;36.47;;;15.13;;
70927;SDS011;58587;53.034;18.576;2023-04-28T19:28:15;27.63;;;11.93;;
70927;SDS011;58587;53.034;18.576;2023-04-28T19:30:41;26.55;;;11.15;;
70927;SDS011;58587;53.034;18.576;2023-04-28T19:33:06;37.88;;;17.08;;
70927;SDS011;58587;53.034;18.576;2023-04-28T19:35:32;61.47;;;25.07;;
70927;SDS011;58587;53.034;18.576;2023-04-28T19:37:58;38.13;;;18.60;;
70927;SDS011;58587;53.034;18.576;2023-04-28T19:40:23;37.40;;;17.30;;
70927;SDS011;58587;53.034;18.576;2023-04-28T19:42:50;29.60;;;14.05;;
70927;SDS011;58587;53.034;18.576;2023-04-28T19:45:15;28.23;;;14.10;;
70927;SDS011;58587;53.034;18.576;2023-04-28T19:47:41;23.13;;;11.97;;
70927;SDS011;58587;53.034;18.576;2023-04-28T19:50:07;20.52;;;10.80;;
70927;SDS011;58587;53.034;18.576;2023-04-28T19:52:34;25.13;;;11.87;;
70927;SDS011;58587;53.034;18.576;2023-04-28T19:54:59;21.08;;;10.45;;
70927;SDS011;58587;53.034;18.576;2023-04-28T19:57:24;26.13;;;14.37;;
70927;SDS011;58587;53.034;18.576;2023-04-28T19:59:50;22.63;;;11.43;;
70927;SDS011;58587;53.034;18.576;2023-04-28T20:02:15;19.63;;;10.47;;
70927;SDS011;58587;53.034;18.576;2023-04-28T20:04:41;21.48;;;11.00;;
70927;SDS011;58587;53.034;18.576;2023-04-28T20:07:07;18.73;;;9.83;;
70927;SDS011;58587;53.034;18.576;2023-04-28T20:09:33;20.98;;;10.60;;
70927;SDS011;58587;53.034;18.576;2023-04-28T20:11:59;24.80;;;10.88;;
70927;SDS011;58587;53.034;18.576;2023-04-28T20:14:28;20.08;;;10.30;;
70927;SDS011;58587;53.034;18.576;2023-04-28T20:16:53;22.07;;;11.03;;
70927;SDS011;58587;53.034;18.576;2023-04-28T20:19:18;17.73;;;9.73;;
70927;SDS011;58587;53.034;18.576;2023-04-28T20:21:44;22.97;;;10.00;;
70927;SDS011;58587;53.034;18.576;2023-04-28T20:24:09;18.60;;;9.53;;
70927;SDS011;58587;53.034;18.576;2023-04-28T20:26:35;18.73;;;9.80;;
70927;SDS011;58587;53.034;18.576;2023-04-28T20:29:00;19.27;;;9.17;;
70927;SDS011;58587;53.034;18.576;2023-04-28T20:31:26;18.50;;;10.23;;
70927;SDS011;58587;53.034;18.576;2023-04-28T20:33:51;18.13;;;10.13;;
70927;SDS011;58587;53.034;18.576;2023-04-28T20:36:16;22.38;;;10.18;;
70927;SDS011;58587;53.034;18.576;2023-04-28T20:38:42;18.30;;;10.30;;
70927;SDS011;58587;53.034;18.576;2023-04-28T20:41:10;19.87;;;9.87;;
70927;SDS011;58587;53.034;18.576;2023-04-28T20:43:36;19.40;;;9.80;;
70927;SDS011;58587;53.034;18.576;2023-04-28T20:46:02;18.65;;;10.20;;
70927;SDS011;58587;53.034;18.576;2023-04-28T20:48:32;19.85;;;9.85;;
70927;SDS011;58587;53.034;18.576;2023-04-28T20:51:00;18.33;;;9.52;;
70927;SDS011;58587;53.034;18.576;2023-04-28T20:53:26;19.83;;;9.75;;
70927;SDS011;58587;53.034;18.576;2023-04-28T20:55:51;16.97;;;9.37;;
70927;SDS011;58587;53.034;18.576;2023-04-28T20:58:16;22.30;;;9.63;;
70927;SDS011;58587;53.034;18.576;2023-04-28T21:00:42;18.07;;;9.50;;
70927;SDS011;58587;53.034;18.576;2023-04-28T21:03:08;20.77;;;9.87;;
70927;SDS011;58587;53.034;18.576;2023-04-28T21:05:39;16.48;;;9.45;;
70927;SDS011;58587;53.034;18.576;2023-04-28T21:08:04;18.38;;;9.98;;
70927;SDS011;58587;53.034;18.576;2023-04-28T21:10:30;16.10;;;9.53;;
70927;SDS011;58587;53.034;18.576;2023-04-28T21:12:55;16.93;;;8.83;;
70927;SDS011;58587;53.034;18.576;2023-04-28T21:15:20;18.67;;;9.17;;
70927;SDS011;58587;53.034;18.576;2023-04-28T21:17:46;16.67;;;9.00;;
70927;SDS011;58587;53.034;18.576;2023-04-28T21:20:11;20.23;;;9.80;;
70927;SDS011;58587;53.034;18.576;2023-04-28T21:22:37;22.02;;;10.25;;
70927;SDS011;58587;53.034;18.576;2023-04-28T21:25:02;20.00;;;9.53;;
70927;SDS011;58587;53.034;18.576;2023-04-28T21:27:29;19.90;;;9.70;;
70927;SDS011;58587;53.034;18.576;2023-04-28T21:29:55;21.07;;;10.70;;
70927;SDS011;58587;53.034;18.576;2023-04-28T21:32:20;21.30;;;10.57;;
70927;SDS011;58587;53.034;18.576;2023-04-28T21:34:46;17.03;;;8.93;;
70927;SDS011;58587;53.034;18.576;2023-04-28T21:37:12;18.85;;;9.95;;
70927;SDS011;58587;53.034;18.576;2023-04-28T21:39:38;18.02;;;9.82;;
70927;SDS011;58587;53.034;18.576;2023-04-28T21:42:03;15.03;;;9.70;;
70927;SDS011;58587;53.034;18.576;2023-04-28T21:44:31;15.20;;;9.52;;
70927;SDS011;58587;53.034;18.576;2023-04-28T21:46:56;18.63;;;9.77;;
70927;SDS011;58587;53.034;18.576;2023-04-28T21:49:22;18.17;;;9.80;;
70927;SDS011;58587;53.034;18.576;2023-04-28T21:51:47;17.27;;;9.20;;
70927;SDS011;58587;53.034;18.576;2023-04-28T21:54:12;15.37;;;9.70;;
70927;SDS011;58587;53.034;18.576;2023-04-28T21:56:38;19.85;;;9.80;;
70927;SDS011;58587;53.034;18.576;2023-04-28T21:59:03;15.50;;;9.07;;
70927;SDS011;58587;53.034;18.576;2023-04-28T22:01:29;16.20;;;9.63;;
70927;SDS011;58587;53.034;18.576;2023-04-28T22:03:55;15.63;;;9.02;;
70927;SDS011;58587;53.034;18.576;2023-04-28T22:06:21;15.53;;;8.90;;
70927;SDS011;58587;53.034;18.576;2023-04-28T22:08:47;15.85;;;9.30;;
70927;SDS011;58587;53.034;18.576;2023-04-28T22:11:12;18.10;;;9.27;;
70927;SDS011;58587;53.034;18.576;2023-04-28T22:13:38;18.63;;;9.63;;
70927;SDS011;58587;53.034;18.576;2023-04-28T22:16:03;18.87;;;9.87;;
70927;SDS011;58587;53.034;18.576;2023-04-28T22:18:29;18.17;;;9.65;;
70927;SDS011;58587;53.034;18.576;2023-04-28T22:20:55;19.17;;;9.70;;
70927;SDS011;58587;53.034;18.576;2023-04-28T22:23:20;15.73;;;9.40;;
70927;SDS011;58587;53.034;18.576;2023-04-28T22:25:45;18.08;;;9.73;;
70927;SDS011;58587;53.034;18.576;2023-04-28T22:28:11;16.52;;;9.32;;
70927;SDS011;58587;53.034;18.576;2023-04-28T22:30:37;13.90;;;8.73;;
70927;SDS011;58587;53.034;18.576;2023-04-28T22:33:03;16.38;;;9.73;;
70927;SDS011;58587;53.034;18.576;2023-04-28T22:35:29;14.60;;;9.87;;
70927;SDS011;58587;53.034;18.576;2023-04-28T22:37:54;18.17;;;9.60;;
70927;SDS011;58587;53.034;18.576;2023-04-28T22:40:19;16.77;;;10.03;;
70927;SDS011;58587;53.034;18.576;2023-04-28T22:42:45;17.98;;;9.70;;
70927;SDS011;58587;53.034;18.576;2023-04-28T22:45:10;15.67;;;9.90;;
70927;SDS011;58587;53.034;18.576;2023-04-28T22:47:37;16.85;;;9.13;;
70927;SDS011;58587;53.034;18.576;2023-04-28T22:50:05;18.42;;;9.00;;
70927;SDS011;58587;53.034;18.576;2023-04-28T22:52:32;23.05;;;10.32;;
70927;SDS011;58587;53.034;18.576;2023-04-28T22:54:58;15.55;;;9.05;;
70927;SDS011;58587;53.034;18.576;2023-04-28T22:57:23;15.80;;;9.87;;
70927;SDS011;58587;53.034;18.576;2023-04-28T22:59:49;19.43;;;9.50;;
70927;SDS011;58587;53.034;18.576;2023-04-28T23:02:14;18.27;;;9.37;;
70927;SDS011;58587;53.034;18.576;2023-04-28T23:04:39;15.95;;;9.18;;
70927;SDS011;58587;53.034;18.576;2023-04-28T23:07:05;16.67;;;9.43;;
70927;SDS011;58587;53.034;18.576;2023-04-28T23:09:31;18.02;;;9.40;;
70927;SDS011;58587;53.034;18.576;2023-04-28T23:11:59;13.73;;;8.80;;
70927;SDS011;58587;53.034;18.576;2023-04-28T23:14:28;13.60;;;9.23;;
70927;SDS011;58587;53.034;18.576;2023-04-28T23:16:54;16.50;;;8.70;;
70927;SDS011;58587;53.034;18.576;2023-04-28T23:19:19;16.00;;;8.70;;
70927;SDS011;58587;53.034;18.576;2023-04-28T23:21:45;14.00;;;8.50;;
70927;SDS011;58587;53.034;18.576;2023-04-28T23:24:10;14.73;;;8.60;;
70927;SDS011;58587;53.034;18.576;2023-04-28T23:26:35;17.47;;;8.77;;
70927;SDS011;58587;53.034;18.576;2023-04-28T23:29:01;16.83;;;9.07;;
70927;SDS011;58587;53.034;18.576;2023-04-28T23:31:26;14.77;;;8.50;;
